Terminal Aerodrome Forecast
Issued by NWS Quad Cities IA IL

Home | Current Version | Previous Version | Graphics & Text | Print | Product List | Glossary On
Versions: 1 2 3 4 5 6 7 8 9 10 11 12
000
FTUS43 KDVN 221124
TAFMLI
TAF
KMLI 221124Z 2212/2312 08008KT P6SM SCT200
      TEMPO 2212/2214 BKN020
     FM230300 11010KT P6SM BKN120=

USA.gov is the U.S. government's official web portal to all federal, state and local government web resources and services.